Cape Newenham, Alaska
Current Conditions -  °F | °C
As of 10:55 AM on Thursday 29 Jan 2015 (Local Time) from PAEH Reporting Station
Clear Clear  
Wind Chill:   Ceiling: Unl
Heat Index:   Visibility: 10mi
Dew Point:   Wind: 3mph
Humidity: 93%   Direction: NA
Pressure: 30.29"   Gusts: NA
Location:  58.65°N, 162.06°W
Report Text: PAEH 291955Z AUTO VRB03KT 10SM CLR M16/M17 A3029 RMK AO2 SLP278 T11571166
Loading
Personal Weather Stations






























Interactive Weather Map New forecast layout! Learn more

10-Day Weather Forecast

Advertisements
Track Severe Weather on mobile